Time;durP1;ratioP1;P1;durP2;ratioP2;P2;SDS_P1;SDS_P2;PMS_P1;PMS_P2;Temp;Humidity;BMP_temperature;BMP_pressure;BME280_temperature;BME280_humidity;BME280_pressure;Samples;Min_cycle;Max_cycle;Signal;HPM_P1;HPM_P2
2024/01/28 04:00:55;;;;;;;5.95;3.90;;;22.60;25.20;;;;;;5968543;23;45553;-86
2024/01/28 04:03:22;;;;;;;5.28;3.72;;;22.60;25.00;;;;;;4979463;28;53100;-83
2024/01/28 04:05:48;;;;;;;6.00;3.80;;;22.60;25.30;;;;;;5003007;28;45386;-83
2024/01/28 04:08:14;;;;;;;4.35;3.53;;;22.60;25.20;;;;;;5006022;28;44822;-83
2024/01/28 04:10:39;;;;;;;6.55;3.70;;;22.60;25.20;;;;;;4984849;28;45014;-83
2024/01/28 04:13:05;;;;;;;4.68;3.40;;;22.60;25.20;;;;;;4995866;28;46378;-83
2024/01/28 04:15:31;;;;;;;5.28;3.58;;;22.60;25.20;;;;;;4994010;28;45238;-83
2024/01/28 04:17:57;;;;;;;6.43;3.63;;;22.60;25.20;;;;;;4977416;28;45476;-82
2024/01/28 04:20:23;;;;;;;6.95;3.70;;;22.60;25.30;;;;;;4967487;28;45349;-83
2024/01/28 04:22:49;;;;;;;5.95;3.40;;;22.60;25.20;;;;;;4979441;28;46410;-84
2024/01/28 04:25:18;;;;;;;5.63;4.00;;;22.60;25.20;;;;;;4994071;28;45466;-83
2024/01/28 04:27:44;;;;;;;4.20;3.15;;;22.60;25.20;;;;;;5003253;28;45304;-84
2024/01/28 04:30:10;;;;;;;5.20;3.10;;;22.50;25.10;;;;;;4963253;28;45303;-85
2024/01/28 04:32:36;;;;;;;6.32;3.60;;;22.50;25.20;;;;;;4967132;28;45456;-83
2024/01/28 04:35:05;;;;;;;5.85;3.35;;;22.60;25.20;;;;;;5002155;28;45348;-87
2024/01/28 04:37:30;;;;;;;6.28;3.83;;;22.50;25.10;;;;;;4978558;28;45351;-86
2024/01/28 04:39:57;;;;;;;5.78;3.50;;;22.50;25.10;;;;;;4954424;28;45685;-83
2024/01/28 04:42:23;;;;;;;4.47;3.13;;;22.50;25.10;;;;;;4971422;28;47162;-84
2024/01/28 04:44:49;;;;;;;4.47;3.08;;;22.50;25.10;;;;;;5008459;28;45588;-83
2024/01/28 04:47:15;;;;;;;5.00;2.95;;;22.50;25.10;;;;;;4989751;28;44888;-84
2024/01/28 04:49:42;;;;;;;6.15;3.25;;;22.50;25.10;;;;;;4968108;28;44963;-83
2024/01/28 04:52:07;;;;;;;5.85;3.30;;;22.50;25.00;;;;;;5005025;28;46324;-83
2024/01/28 04:54:34;;;;;;;5.85;3.50;;;22.50;25.10;;;;;;4969699;28;45300;-82
2024/01/28 04:57:01;;;;;;;4.03;2.58;;;22.50;25.00;;;;;;4982950;28;45310;-84
2024/01/28 04:59:29;;;;;;;4.95;2.95;;;22.50;25.00;;;;;;4980462;28;45421;-82
2024/01/28 05:01:55;;;;;;;5.57;3.33;;;22.50;25.00;;;;;;5003979;28;45386;-83
2024/01/28 05:04:21;;;;;;;5.03;2.60;;;22.50;25.00;;;;;;5002454;28;45547;-84
2024/01/28 05:06:47;;;;;;;4.97;2.90;;;22.50;25.00;;;;;;4989923;28;45426;-83
2024/01/28 05:09:12;;;;;;;4.57;2.75;;;22.40;25.00;;;;;;4993002;28;45316;-83
2024/01/28 05:11:38;;;;;;;4.53;2.90;;;22.50;25.00;;;;;;4981208;28;48251;-85
2024/01/28 05:14:04;;;;;;;5.57;2.83;;;22.50;25.00;;;;;;4972061;28;44866;-83
2024/01/28 05:16:30;;;;;;;4.32;2.80;;;22.40;25.00;;;;;;4986561;28;45380;-83
2024/01/28 05:18:56;;;;;;;4.45;2.88;;;22.40;25.00;;;;;;4973815;28;45355;-84
2024/01/28 05:21:25;;;;;;;4.93;2.50;;;22.40;25.00;;;;;;4981777;28;46014;-85
2024/01/28 05:23:51;;;;;;;3.97;2.28;;;22.40;25.00;;;;;;4998121;28;45193;-83
2024/01/28 05:26:17;;;;;;;4.60;2.60;;;22.40;25.00;;;;;;4990556;28;45646;-82
2024/01/28 05:28:44;;;;;;;4.40;2.75;;;22.40;25.00;;;;;;4996222;28;45244;-86
2024/01/28 05:31:10;;;;;;;4.40;2.58;;;22.40;25.00;;;;;;4994686;28;46288;-83
2024/01/28 05:33:40;;;;;;;4.50;2.88;;;22.30;24.90;;;;;;4978998;28;45318;-84
2024/01/28 05:36:16;;;;;;;5.35;2.65;;;22.40;25.00;;;;;;4987480;28;45229;-84
2024/01/28 05:38:42;;;;;;;5.18;2.95;;;22.30;24.80;;;;;;4988127;28;45386;-83
2024/01/28 05:41:08;;;;;;;4.40;2.53;;;22.30;24.90;;;;;;4982886;28;45572;-86
2024/01/28 05:43:33;;;;;;;6.70;2.80;;;22.30;24.90;;;;;;4989699;28;45313;-84
2024/01/28 05:46:00;;;;;;;5.78;2.78;;;22.30;24.90;;;;;;4981922;28;46475;-83
2024/01/28 05:48:26;;;;;;;4.78;2.88;;;22.30;24.90;;;;;;4981296;28;45504;-83
2024/01/28 05:50:52;;;;;;;6.47;3.00;;;22.30;24.90;;;;;;4993006;28;46347;-83
2024/01/28 05:53:17;;;;;;;5.78;3.30;;;22.30;24.90;;;;;;4996540;28;45223;-83
2024/01/28 05:55:43;;;;;;;4.25;2.70;;;22.30;24.90;;;;;;4975321;28;45107;-85
2024/01/28 05:58:09;;;;;;;5.22;3.08;;;22.30;24.90;;;;;;4980255;28;45730;-83
2024/01/28 06:00:35;;;;;;;4.22;2.80;;;22.30;24.90;;;;;;4983444;28;45429;-84
2024/01/28 06:03:01;;;;;;;5.82;3.10;;;22.30;24.90;;;;;;4975683;28;45357;-84
2024/01/28 06:05:26;;;;;;;5.38;3.38;;;22.30;24.90;;;;;;4991055;28;45146;-83
2024/01/28 06:07:52;;;;;;;5.20;3.47;;;22.20;24.90;;;;;;4950890;28;45357;-84
2024/01/28 06:10:21;;;;;;;5.75;3.17;;;22.20;24.90;;;;;;4987404;28;45329;-87
2024/01/28 06:12:47;;;;;;;4.45;3.35;;;22.20;24.90;;;;;;4991084;28;44869;-86
2024/01/28 06:15:15;;;;;;;4.72;3.00;;;22.20;24.90;;;;;;4996600;28;44781;-86
2024/01/28 06:17:40;;;;;;;6.93;4.10;;;22.20;24.90;;;;;;4995859;28;45553;-84
2024/01/28 06:20:07;;;;;;;8.10;4.85;;;22.20;24.90;;;;;;4994507;28;45336;-87
2024/01/28 06:22:33;;;;;;;6.75;4.35;;;22.20;24.90;;;;;;4979023;28;45257;-84
2024/01/28 06:25:00;;;;;;;9.63;5.65;;;22.20;24.90;;;;;;5005454;28;44764;-88
2024/01/28 06:27:25;;;;;;;8.68;6.07;;;22.20;24.90;;;;;;4974074;28;45232;-84
2024/01/28 06:29:52;;;;;;;9.40;6.55;;;22.20;24.90;;;;;;4966883;28;46399;-84
2024/01/28 06:32:18;;;;;;;11.45;7.90;;;22.20;24.90;;;;;;4997011;28;45619;-84
2024/01/28 06:34:44;;;;;;;12.50;8.77;;;22.20;24.90;;;;;;5008516;28;45460;-84
2024/01/28 06:37:10;;;;;;;13.18;8.60;;;22.10;24.80;;;;;;4997448;28;45841;-83
2024/01/28 06:39:36;;;;;;;14.93;9.85;;;22.20;24.90;;;;;;5007127;28;45699;-84
2024/01/28 06:42:02;;;;;;;13.50;9.38;;;22.10;24.80;;;;;;4987188;28;45207;-84
2024/01/28 06:44:28;;;;;;;13.15;9.05;;;22.10;24.90;;;;;;4996747;28;45615;-84
2024/01/28 06:46:54;;;;;;;14.13;9.88;;;22.10;24.90;;;;;;4975637;28;45288;-83
2024/01/28 06:49:20;;;;;;;14.40;9.57;;;22.10;24.80;;;;;;4994699;28;45501;-84
2024/01/28 06:51:46;;;;;;;13.32;9.18;;;22.10;24.90;;;;;;4986585;28;45276;-84
2024/01/28 06:54:12;;;;;;;14.30;9.50;;;22.10;24.80;;;;;;4997501;28;44948;-84
2024/01/28 06:56:38;;;;;;;12.35;8.65;;;22.10;24.90;;;;;;4994733;28;44704;-84
2024/01/28 06:59:04;;;;;;;11.52;7.95;;;22.10;24.90;;;;;;4996326;28;45196;-86
2024/01/28 07:01:30;;;;;;;12.50;8.52;;;22.00;24.90;;;;;;4986663;28;45542;-84
2024/01/28 07:03:55;;;;;;;11.30;7.90;;;22.00;24.80;;;;;;5007704;28;45227;-84
2024/01/28 07:06:21;;;;;;;12.23;8.13;;;22.00;24.90;;;;;;4994733;28;45228;-84
2024/01/28 07:08:47;;;;;;;11.55;8.32;;;22.00;24.90;;;;;;4991538;28;46791;-84
2024/01/28 07:11:13;;;;;;;11.57;8.25;;;22.00;24.80;;;;;;4969968;28;45541;-84
2024/01/28 07:13:40;;;;;;;12.50;7.68;;;22.00;24.90;;;;;;5002443;28;45215;-84
2024/01/28 07:16:06;;;;;;;12.13;7.60;;;22.00;24.90;;;;;;4984765;28;45091;-84
2024/01/28 07:18:32;;;;;;;13.15;7.97;;;22.00;24.90;;;;;;4967475;28;46196;-83
2024/01/28 07:20:59;;;;;;;11.60;7.85;;;22.00;24.90;;;;;;4978244;28;45318;-84
2024/01/28 07:23:25;;;;;;;10.63;6.93;;;22.00;24.90;;;;;;4982256;28;45272;-84
2024/01/28 07:25:51;;;;;;;10.63;7.18;;;22.00;24.90;;;;;;4984662;28;45423;-83
2024/01/28 07:28:17;;;;;;;8.90;6.28;;;22.00;24.90;;;;;;5001317;28;45910;-85
2024/01/28 07:30:43;;;;;;;9.23;6.13;;;21.90;24.80;;;;;;4984197;28;45318;-84
2024/01/28 07:33:10;;;;;;;8.10;6.10;;;22.00;24.90;;;;;;4985568;28;45252;-84
2024/01/28 07:35:35;;;;;;;9.23;6.55;;;21.90;24.80;;;;;;5000020;28;45279;-83
2024/01/28 07:38:01;;;;;;;12.52;6.05;;;21.90;24.80;;;;;;4961073;28;47018;-84
2024/01/28 07:40:26;;;;;;;8.13;5.32;;;21.90;24.80;;;;;;4978048;28;45304;-85
2024/01/28 07:42:55;;;;;;;9.70;5.93;;;21.90;24.80;;;;;;4975236;28;45213;-84
2024/01/28 07:45:21;;;;;;;8.82;5.38;;;21.90;24.80;;;;;;4985919;28;44767;-84
2024/01/28 07:47:46;;;;;;;7.75;5.10;;;21.80;24.80;;;;;;4960543;28;46441;-83
2024/01/28 07:50:14;;;;;;;7.40;5.03;;;21.90;24.90;;;;;;4963924;28;45260;-83
2024/01/28 07:52:40;;;;;;;8.95;5.30;;;21.90;24.90;;;;;;5009159;28;45231;-85
2024/01/28 07:55:10;;;;;;;6.72;4.93;;;21.90;24.90;;;;;;4970170;28;45550;-84
2024/01/28 07:57:36;;;;;;;7.93;5.18;;;21.80;24.80;;;;;;4975377;28;46204;-84
2024/01/28 08:00:16;;;;;;;7.55;4.70;;;21.80;24.80;;;;;;4986131;28;45200;-87
2024/01/28 08:02:42;;;;;;;8.35;4.88;;;21.80;24.80;;;;;;4955348;28;45258;-84
2024/01/28 08:05:08;;;;;;;7.40;4.38;;;21.80;24.90;;;;;;4974203;28;44824;-85
2024/01/28 08:07:34;;;;;;;6.15;4.03;;;21.80;24.90;;;;;;4991015;28;46556;-84
2024/01/28 08:10:01;;;;;;;8.65;4.47;;;21.80;24.90;;;;;;4994161;28;44857;-86
2024/01/28 08:12:33;;;;;;;6.18;3.95;;;21.80;24.90;;;;;;4970505;28;45212;-86
2024/01/28 08:14:58;;;;;;;4.57;3.60;;;21.80;24.90;;;;;;4991697;28;45471;-86
2024/01/28 08:17:24;;;;;;;5.53;3.47;;;21.80;24.90;;;;;;4950166;28;46331;-84
2024/01/28 08:19:50;;;;;;;6.32;3.78;;;21.80;24.90;;;;;;5001823;28;45047;-84
2024/01/28 08:22:16;;;;;;;6.03;3.65;;;21.80;25.00;;;;;;4952881;28;45524;-85
2024/01/28 08:24:42;;;;;;;4.60;3.30;;;21.80;24.90;;;;;;4998484;28;45266;-84
2024/01/28 08:27:08;;;;;;;4.95;3.47;;;21.80;25.00;;;;;;4999181;28;45329;-85
2024/01/28 08:29:33;;;;;;;5.45;3.47;;;21.70;24.90;;;;;;4984232;28;45408;-85
2024/01/28 08:32:00;;;;;;;7.45;3.47;;;21.70;24.90;;;;;;4982639;28;45430;-84
2024/01/28 08:34:29;;;;;;;4.95;3.08;;;21.70;24.90;;;;;;5011156;28;45229;-84
2024/01/28 08:36:55;;;;;;;4.68;3.00;;;21.70;24.90;;;;;;4992287;28;46710;-84
2024/01/28 08:39:21;;;;;;;4.90;3.28;;;21.70;24.90;;;;;;4985244;28;44943;-84
2024/01/28 08:41:47;;;;;;;5.03;3.13;;;21.70;25.00;;;;;;5011365;28;45698;-85
2024/01/28 08:44:15;;;;;;;5.07;3.30;;;21.70;25.00;;;;;;4972732;28;45447;-86
2024/01/28 08:46:41;;;;;;;6.45;3.25;;;21.70;25.00;;;;;;4994081;28;45730;-84
2024/01/28 08:49:07;;;;;;;4.60;2.80;;;21.70;25.00;;;;;;4972926;28;45271;-84
2024/01/28 08:51:32;;;;;;;5.53;2.95;;;21.70;25.50;;;;;;4968869;28;44986;-86
2024/01/28 08:53:59;;;;;;;5.68;3.25;;;21.70;25.00;;;;;;4977642;28;45475;-84
2024/01/28 08:56:25;;;;;;;5.80;3.10;;;21.60;25.00;;;;;;4996392;28;46570;-84
2024/01/28 08:58:51;;;;;;;5.25;2.85;;;21.70;25.00;;;;;;4996982;28;45339;-84
2024/01/28 09:01:17;;;;;;;3.58;2.65;;;21.60;25.00;;;;;;4977188;28;44975;-85
2024/01/28 09:03:42;;;;;;;3.85;2.50;;;21.60;25.10;;;;;;4935839;28;45000;-85
2024/01/28 09:06:09;;;;;;;4.93;2.50;;;21.60;25.10;;;;;;4920381;28;46016;-86
2024/01/28 09:08:35;;;;;;;4.63;2.65;;;21.60;25.00;;;;;;4983112;28;45544;-85
2024/01/28 09:11:01;;;;;;;4.38;2.70;;;21.60;25.10;;;;;;4952140;28;45284;-85
2024/01/28 09:13:27;;;;;;;3.22;2.47;;;21.60;25.10;;;;;;4930129;28;45884;-86
2024/01/28 09:15:55;;;;;;;4.32;2.53;;;21.60;25.10;;;;;;4961678;28;45344;-85
2024/01/28 09:18:21;;;;;;;3.30;2.40;;;21.50;25.10;;;;;;4918489;28;45194;-86
2024/01/28 09:20:47;;;;;;;3.92;2.67;;;21.50;25.20;;;;;;4950028;28;45287;-87
2024/01/28 09:23:13;;;;;;;6.13;2.50;;;21.50;25.30;;;;;;4953278;28;46336;-85
2024/01/28 09:25:39;;;;;;;3.60;2.13;;;21.40;25.20;;;;;;4940114;28;46077;-87
2024/01/28 09:28:07;;;;;;;3.67;2.42;;;21.50;25.20;;;;;;4983088;28;46167;-87
2024/01/28 09:30:33;;;;;;;6.90;2.60;;;21.50;25.20;;;;;;4951948;28;45344;-84
2024/01/28 09:32:59;;;;;;;5.85;2.80;;;21.50;25.20;;;;;;4955305;28;45477;-85
2024/01/28 09:35:25;;;;;;;3.88;2.55;;;21.50;25.20;;;;;;4940904;28;46054;-85
2024/01/28 09:37:52;;;;;;;6.40;2.65;;;21.50;25.20;;;;;;4939746;28;45010;-85
2024/01/28 09:40:40;;;;;;;3.90;2.67;;;21.50;25.20;;;;;;4932948;28;45202;-85
2024/01/28 09:43:23;;;;;;;7.78;3.13;;;21.50;25.20;;;;;;4943639;28;45354;-84
2024/01/28 09:45:49;;;;;;;3.33;2.17;;;21.50;25.20;;;;;;4948021;28;48602;-85
2024/01/28 09:48:15;;;;;;;5.75;2.78;;;21.50;25.20;;;;;;4938567;28;45338;-86
2024/01/28 09:50:44;;;;;;;3.75;2.45;;;21.60;25.30;;;;;;4940455;28;44945;-85
2024/01/28 09:53:12;;;;;;;3.35;2.50;;;21.60;25.30;;;;;;4959951;28;45315;-84
2024/01/28 09:55:42;;;;;;;4.40;2.50;;;21.60;25.30;;;;;;4961830;28;47165;-86
2024/01/28 09:58:13;;;;;;;4.18;2.42;;;21.50;25.30;;;;;;4937387;28;44966;-84
2024/01/28 10:00:40;;;;;;;4.13;2.20;;;21.50;25.40;;;;;;4943384;28;45292;-86
2024/01/28 10:03:06;;;;;;;6.03;2.40;;;21.60;25.30;;;;;;4965196;28;45333;-85
2024/01/28 10:05:32;;;;;;;4.25;2.20;;;21.60;25.30;;;;;;4975992;28;46975;-85
2024/01/28 10:08:01;;;;;;;5.30;2.63;;;21.60;25.30;;;;;;4989052;28;45381;-85
2024/01/28 10:10:29;;;;;;;4.45;2.17;;;21.60;25.30;;;;;;4970695;28;45355;-87
2024/01/28 10:12:57;;;;;;;4.13;2.47;;;21.50;25.30;;;;;;4964809;28;45217;-86
2024/01/28 10:15:27;;;;;;;3.95;2.42;;;21.60;25.30;;;;;;4980395;28;46088;-86
2024/01/28 10:17:56;;;;;;;3.33;2.17;;;21.50;25.30;;;;;;5000478;28;45506;-85
2024/01/28 10:20:24;;;;;;;3.50;2.10;;;21.50;25.30;;;;;;4992224;28;44823;-84
2024/01/28 10:22:51;;;;;;;2.97;1.92;;;21.50;25.30;;;;;;4990432;28;45091;-85
2024/01/28 10:25:17;;;;;;;3.38;2.30;;;21.50;25.30;;;;;;4974644;28;45569;-84
2024/01/28 10:27:46;;;;;;;4.75;2.80;;;21.50;25.40;;;;;;4974988;28;45243;-86
2024/01/28 10:30:16;;;;;;;2.97;2.17;;;21.60;25.40;;;;;;4956152;28;45301;-85
2024/01/28 10:32:42;;;;;;;2.88;2.03;;;21.50;25.40;;;;;;4988279;28;45507;-84
2024/01/28 10:35:09;;;;;;;5.10;2.10;;;21.50;25.40;;;;;;4998951;28;46388;-85
2024/01/28 10:37:35;;;;;;;4.57;2.13;;;21.50;25.40;;;;;;4980662;28;45296;-85
2024/01/28 10:40:08;;;;;;;2.80;1.88;;;21.50;25.40;;;;;;4971612;28;45619;-85
2024/01/28 10:42:38;;;;;;;;;;;21.50;25.40;;;;;;4987424;28;44756;-85
2024/01/28 10:45:11;;;;;;;3.35;2.13;;;21.50;25.40;;;;;;4998225;28;46549;-87
2024/01/28 10:47:38;;;;;;;3.25;2.10;;;21.50;25.50;;;;;;4993605;28;45285;-84
2024/01/28 10:50:09;;;;;;;4.30;2.30;;;21.50;25.50;;;;;;4983968;28;45126;-87
2024/01/28 10:52:38;;;;;;;3.40;2.35;;;21.50;26.00;;;;;;4989188;28;45526;-88
2024/01/28 10:55:09;;;;;;;3.33;2.10;;;21.50;25.50;;;;;;4975169;28;46865;-85
2024/01/28 10:57:41;;;;;;;4.30;2.28;;;21.50;25.50;;;;;;4987768;28;45271;-85
2024/01/28 11:00:20;;;;;;;3.65;2.22;;;21.50;25.60;;;;;;4988444;28;45252;-88
2024/01/28 11:02:46;;;;;;;2.75;1.88;;;21.50;25.50;;;;;;4982625;28;45531;-86
2024/01/28 11:05:15;;;;;;;3.33;1.90;;;21.50;25.60;;;;;;4967196;28;47577;-84
2024/01/28 11:07:41;;;;;;;3.28;1.95;;;21.50;25.60;;;;;;5003762;28;45302;-84
2024/01/28 11:10:09;;;;;;;3.35;2.22;;;21.50;25.60;;;;;;4991572;28;44785;-87
2024/01/28 11:12:35;;;;;;;3.05;2.10;;;21.50;25.60;;;;;;4983185;28;45397;-84
2024/01/28 11:15:01;;;;;;;4.38;2.33;;;21.50;25.60;;;;;;4951329;28;46403;-85
2024/01/28 11:17:54;;;;;;;3.47;2.40;;;21.40;25.60;;;;;;4980016;28;45449;-85
2024/01/28 11:20:24;;;;;;;3.08;1.98;;;21.50;25.60;;;;;;4987816;28;45181;-87
2024/01/28 11:22:50;;;;;;;2.67;1.90;;;21.50;25.70;;;;;;4991965;28;45415;-84
2024/01/28 11:25:24;;;;;;;3.63;2.08;;;21.50;25.70;;;;;;4977797;28;46458;-85
2024/01/28 11:27:51;;;;;;;4.10;2.13;;;21.50;25.70;;;;;;4991211;28;45439;-85
2024/01/28 11:30:23;;;;;;;5.05;2.40;;;21.50;25.70;;;;;;4974504;28;45908;-85
2024/01/28 11:32:49;;;;;;;3.35;2.20;;;21.50;25.70;;;;;;4974263;28;45483;-84
2024/01/28 11:35:15;;;;;;;3.40;2.08;;;21.50;25.70;;;;;;4988767;28;45896;-85
2024/01/28 11:37:55;;;;;;;4.13;2.10;;;21.50;25.70;;;;;;4964236;28;44828;-84
2024/01/28 11:40:25;;;;;;;4.80;2.40;;;21.50;25.70;;;;;;4982848;28;45398;-84
2024/01/28 11:42:55;;;;;;;3.83;2.20;;;21.50;25.80;;;;;;4981455;28;44845;-85
2024/01/28 11:45:21;;;;;;;2.53;1.90;;;21.50;26.30;;;;;;4978456;28;46604;-86
2024/01/28 11:47:47;;;;;;;3.80;2.30;;;21.50;25.80;;;;;;4951225;28;45343;-85
2024/01/28 11:50:13;;;;;;;5.03;2.30;;;21.40;25.80;;;;;;4974025;28;45208;-87
2024/01/28 11:52:40;;;;;;;4.80;2.53;;;21.50;25.80;;;;;;4986478;28;45315;-84
2024/01/28 11:55:14;;;;;;;2.40;1.90;;;21.50;25.80;;;;;;4999143;28;46037;-85
2024/01/28 11:57:45;;;;;;;3.65;2.28;;;21.50;25.80;;;;;;4991757;28;45246;-84
2024/01/28 12:00:15;;;;;;;2.30;1.77;;;21.50;25.90;;;;;;4985988;28;45244;-84
2024/01/28 12:02:41;;;;;;;3.00;1.80;;;21.40;25.90;;;;;;4989132;28;45444;-84
2024/01/28 12:05:09;;;;;;;2.70;1.88;;;21.50;25.90;;;;;;4978421;28;46005;-86
2024/01/28 12:07:36;;;;;;;3.95;1.98;;;21.40;25.90;;;;;;4978104;28;45583;-86
2024/01/28 12:10:10;;;;;;;2.92;1.90;;;21.50;25.90;;;;;;4964676;28;45050;-84
2024/01/28 12:12:36;;;;;;;3.08;2.00;;;21.40;25.90;;;;;;4958913;28;45228;-84
2024/01/28 12:15:12;;;;;;;4.60;2.05;;;21.50;26.00;;;;;;4984244;28;46250;-85
2024/01/28 12:17:43;;;;;;;3.92;1.80;;;21.50;26.00;;;;;;4996019;28;44669;-84
2024/01/28 12:20:28;;;;;;;2.63;1.90;;;21.40;26.00;;;;;;5010178;28;45551;-87
2024/01/28 12:22:54;;;;;;;2.83;1.85;;;21.40;26.00;;;;;;4974094;28;45437;-84
2024/01/28 12:25:24;;;;;;;4.38;1.80;;;21.50;26.10;;;;;;4953295;28;46328;-85
2024/01/28 12:27:51;;;;;;;5.15;2.05;;;21.50;26.10;;;;;;4989994;28;45534;-84
2024/01/28 12:30:18;;;;;;;3.15;2.00;;;21.40;26.00;;;;;;4998336;28;45844;-87
2024/01/28 12:32:48;;;;;;;2.63;1.80;;;21.40;26.10;;;;;;4984370;28;45461;-86
2024/01/28 12:35:16;;;;;;;2.53;1.42;;;21.40;26.10;;;;;;4985235;28;46980;-85
2024/01/28 12:37:42;;;;;;;2.40;1.60;;;21.40;26.10;;;;;;4996809;28;45343;-85
2024/01/28 12:40:08;;;;;;;2.95;1.80;;;21.40;26.10;;;;;;4980968;28;45359;-85
2024/01/28 12:42:35;;;;;;;3.08;1.52;;;21.40;26.10;;;;;;4966098;28;45503;-85
2024/01/28 12:45:01;;;;;;;2.70;1.67;;;21.40;26.10;;;;;;4971235;28;46513;-86
2024/01/28 12:47:27;;;;;;;2.33;1.45;;;21.40;26.20;;;;;;4979195;28;45371;-84
2024/01/28 12:49:52;;;;;;;2.47;1.63;;;21.40;26.20;;;;;;4984256;28;45272;-84
2024/01/28 12:52:18;;;;;;;3.53;1.83;;;21.40;26.20;;;;;;4985438;28;45168;-85
2024/01/28 12:54:44;;;;;;;3.22;1.60;;;21.40;26.20;;;;;;5002947;28;46340;-86
2024/01/28 12:57:12;;;;;;;2.70;1.50;;;21.40;26.20;;;;;;4997308;28;44971;-84
2024/01/28 12:59:38;;;;;;;2.50;1.55;;;21.40;26.20;;;;;;4985187;28;44937;-87
2024/01/28 13:02:05;;;;;;;1.90;1.52;;;21.40;26.30;;;;;;4960015;28;45968;-85
2024/01/28 13:04:31;;;;;;;2.65;1.60;;;21.40;26.30;;;;;;4978856;28;45939;-86
2024/01/28 13:06:58;;;;;;;1.45;1.02;;;21.40;26.30;;;;;;5017431;28;45265;-85
2024/01/28 13:09:23;;;;;;;1.67;1.20;;;21.40;26.30;;;;;;5005474;28;45288;-86
2024/01/28 13:11:49;;;;;;;1.73;1.20;;;21.40;26.30;;;;;;4966820;28;45518;-84
2024/01/28 13:14:15;;;;;;;1.48;1.23;;;21.40;26.30;;;;;;4986439;28;45327;-86
2024/01/28 13:16:42;;;;;;;2.42;1.30;;;21.40;26.30;;;;;;4987462;28;45352;-84
2024/01/28 13:19:07;;;;;;;1.58;1.10;;;21.40;26.40;;;;;;4989123;28;44745;-84
2024/01/28 13:21:33;;;;;;;2.00;1.27;;;21.40;26.40;;;;;;4992909;28;45403;-84
2024/01/28 13:24:00;;;;;;;1.73;1.23;;;21.40;26.40;;;;;;4991207;28;47328;-84
2024/01/28 13:26:26;;;;;;;2.47;1.58;;;21.40;26.40;;;;;;5002548;28;45493;-84
2024/01/28 13:28:52;;;;;;;1.42;1.08;;;21.40;26.40;;;;;;4983148;28;45335;-83
2024/01/28 13:31:18;;;;;;;1.60;1.05;;;21.40;26.40;;;;;;4981610;28;45217;-84
2024/01/28 13:33:44;;;;;;;1.70;1.02;;;21.40;26.40;;;;;;4999539;28;45556;-85
2024/01/28 13:36:11;;;;;;;2.22;1.10;;;21.40;26.50;;;;;;4976635;28;45865;-85
2024/01/28 13:38:36;;;;;;;1.85;1.20;;;21.40;26.50;;;;;;4980967;28;44728;-84
2024/01/28 13:41:03;;;;;;;2.78;1.15;;;21.40;26.50;;;;;;4966176;28;45778;-84
2024/01/28 13:43:34;;;;;;;1.55;1.10;;;21.40;26.50;;;;;;4980376;28;48079;-84
2024/01/28 13:46:01;;;;;;;1.80;1.20;;;21.40;26.50;;;;;;4999440;28;44700;-86
2024/01/28 13:48:30;;;;;;;1.75;1.02;;;21.40;26.50;;;;;;4978397;28;45204;-85
2024/01/28 13:50:56;;;;;;;1.58;1.10;;;21.40;26.50;;;;;;4969583;28;45213;-84
2024/01/28 13:53:22;;;;;;;2.05;1.10;;;21.40;26.60;;;;;;4994787;28;46818;-84
2024/01/28 13:55:48;;;;;;;2.08;1.00;;;21.40;26.60;;;;;;5011773;28;45220;-84
2024/01/28 13:58:14;;;;;;;1.00;0.90;;;21.40;26.60;;;;;;4999532;28;45354;-84
2024/01/28 14:00:43;;;;;;;1.65;0.95;;;21.40;26.60;;;;;;4986937;28;44799;-89
2024/01/28 14:03:11;;;;;;;1.90;1.00;;;21.40;26.60;;;;;;4962284;28;46473;-84
2024/01/28 14:05:40;;;;;;;2.13;1.10;;;21.30;26.60;;;;;;4952262;28;45173;-86
2024/01/28 14:08:06;;;;;;;1.42;1.00;;;21.40;26.70;;;;;;4976076;28;45186;-84
2024/01/28 14:10:32;;;;;;;1.92;1.10;;;21.40;26.70;;;;;;4923994;28;45416;-85
2024/01/28 14:12:58;;;;;;;1.80;0.70;;;21.40;26.70;;;;;;4976138;28;46198;-84
2024/01/28 14:15:24;;;;;;;2.78;1.25;;;21.40;26.70;;;;;;4943614;28;44698;-87
2024/01/28 14:17:50;;;;;;;1.02;0.70;;;21.40;26.80;;;;;;4946132;28;45192;-88
2024/01/28 14:20:16;;;;;;;0.90;0.80;;;21.40;26.80;;;;;;4949265;28;45231;-88
2024/01/28 14:22:41;;;;;;;1.52;0.80;;;21.40;26.80;;;;;;4927305;28;46306;-85
2024/01/28 14:25:08;;;;;;;1.08;0.90;;;21.40;26.80;;;;;;4962110;28;45688;-86
2024/01/28 14:27:36;;;;;;;1.77;1.08;;;21.40;26.80;;;;;;4949620;28;45485;-84
2024/01/28 14:30:07;;;;;;;1.30;0.82;;;21.40;26.80;;;;;;4963587;28;44684;-88
2024/01/28 14:32:33;;;;;;;1.50;0.90;;;21.40;26.80;;;;;;4941469;28;46862;-85
2024/01/28 14:34:59;;;;;;;1.50;1.00;;;21.30;27.30;;;;;;4983053;28;45246;-84
2024/01/28 14:37:24;;;;;;;1.90;0.90;;;21.30;26.80;;;;;;4953297;28;45204;-86
2024/01/28 14:40:00;;;;;;;1.10;0.93;;;21.30;26.80;;;;;;4962099;28;46135;-85
2024/01/28 14:42:40;;;;;;;0.95;0.88;;;21.40;26.90;;;;;;4984186;28;45956;-86
2024/01/28 14:45:13;;;;;;;0.85;0.70;;;21.30;26.90;;;;;;4954836;28;45375;-88
2024/01/28 14:47:39;;;;;;;;;;;21.40;26.90;;;;;;4962814;28;45464;-86
2024/01/28 14:50:10;;;;;;;1.30;0.98;;;21.30;27.00;;;;;;4949184;28;45637;-88
2024/01/28 14:52:36;;;;;;;1.90;0.82;;;21.30;27.00;;;;;;4969560;28;45289;-85
2024/01/28 14:55:09;;;;;;;2.53;1.00;;;21.30;26.90;;;;;;4959287;28;44745;-89
2024/01/28 14:57:35;;;;;;;2.25;0.80;;;21.30;26.90;;;;;;4967768;28;45176;-84
2024/01/28 15:00:03;;;;;;;0.75;0.60;;;21.30;27.00;;;;;;4962948;28;45376;-84
2024/01/28 15:02:44;;;;;;;;;;;21.30;27.00;;;;;;4954451;28;46140;-84
2024/01/28 15:05:43;;;;;;;1.20;0.70;;;21.30;27.10;;;;;;4988327;28;45076;-87
2024/01/28 15:08:10;;;;;;;0.93;0.68;;;21.30;27.10;;;;;;5016308;28;45373;-85
2024/01/28 15:10:36;;;;;;;0.90;0.70;;;21.30;27.00;;;;;;4986134;28;45576;-84
2024/01/28 15:13:03;;;;;;;1.58;0.70;;;21.30;27.00;;;;;;4992157;28;45539;-85
2024/01/28 15:15:30;;;;;;;1.73;0.88;;;21.30;27.00;;;;;;4986265;28;45110;-85
2024/01/28 15:17:56;;;;;;;1.30;0.85;;;21.30;27.10;;;;;;4994070;28;45189;-84
2024/01/28 15:20:22;;;;;;;1.15;0.75;;;21.30;27.10;;;;;;4996277;28;45230;-85
2024/01/28 15:22:55;;;;;;;1.98;0.60;;;21.30;27.10;;;;;;4986244;28;46187;-87
2024/01/28 15:25:20;;;;;;;0.80;0.47;;;21.30;27.10;;;;;;4981904;28;45544;-85
2024/01/28 15:27:46;;;;;;;0.65;0.60;;;21.20;27.10;;;;;;5004618;28;45295;-84
2024/01/28 15:30:15;;;;;;;0.70;0.60;;;21.30;27.10;;;;;;4979483;28;45201;-84
2024/01/28 15:32:41;;;;;;;1.40;0.90;;;21.30;27.20;;;;;;5001180;28;46509;-85
2024/01/28 15:35:08;;;;;;;1.00;0.60;;;21.30;27.20;;;;;;4996481;28;45367;-85
2024/01/28 15:37:33;;;;;;;1.38;0.75;;;21.20;27.20;;;;;;4995514;28;45629;-85
2024/01/28 15:39:59;;;;;;;1.40;0.88;;;21.20;27.20;;;;;;4989714;28;45439;-84
2024/01/28 15:42:28;;;;;;;0.60;0.57;;;21.20;27.20;;;;;;4980555;28;46218;-86
2024/01/28 15:44:56;;;;;;;1.60;0.90;;;21.20;27.30;;;;;;4985381;28;45307;-85
2024/01/28 15:47:23;;;;;;;1.48;1.15;;;21.20;27.30;;;;;;4959195;28;45841;-85
2024/01/28 15:49:49;;;;;;;1.27;1.00;;;21.20;27.30;;;;;;5010215;28;45470;-84
2024/01/28 15:52:15;;;;;;;1.48;1.08;;;21.20;27.40;;;;;;5005862;28;45583;-84
2024/01/28 15:54:41;;;;;;;1.83;1.08;;;21.20;27.40;;;;;;4988776;28;45587;-85
2024/01/28 15:57:07;;;;;;;1.48;1.00;;;21.20;27.40;;;;;;4984232;28;45295;-84
2024/01/28 15:59:35;;;;;;;1.65;1.13;;;21.20;27.40;;;;;;4961498;28;45515;-84
2024/01/28 16:02:01;;;;;;;1.58;1.00;;;21.20;27.50;;;;;;4972421;28;45799;-85
2024/01/28 16:04:27;;;;;;;1.33;1.02;;;21.20;27.50;;;;;;5000460;28;45131;-85
2024/01/28 16:06:53;;;;;;;1.10;1.00;;;21.10;27.50;;;;;;4991420;28;45457;-84
2024/01/28 16:09:19;;;;;;;1.58;1.10;;;21.20;27.50;;;;;;5007633;28;45042;-84
2024/01/28 16:11:44;;;;;;;1.17;1.08;;;21.20;27.60;;;;;;5000381;28;45517;-84
2024/01/28 16:14:11;;;;;;;1.70;1.00;;;21.20;27.60;;;;;;4987482;28;45207;-84
2024/01/28 16:16:37;;;;;;;1.98;1.23;;;21.20;27.60;;;;;;4982791;28;45589;-83
2024/01/28 16:19:03;;;;;;;2.30;1.38;;;21.20;27.60;;;;;;4991042;28;45472;-85
2024/01/28 16:21:30;;;;;;;1.90;1.40;;;21.20;27.60;;;;;;4991256;28;46014;-85
2024/01/28 16:23:55;;;;;;;2.40;1.40;;;21.20;27.60;;;;;;4996003;28;47315;-85
2024/01/28 16:26:21;;;;;;;2.35;1.55;;;21.20;27.70;;;;;;4959002;28;45082;-83
2024/01/28 16:28:47;;;;;;;1.67;1.20;;;21.20;27.70;;;;;;4990228;28;45775;-84
2024/01/28 16:31:16;;;;;;;1.95;1.45;;;21.20;27.70;;;;;;4991603;28;46861;-84
2024/01/28 16:33:42;;;;;;;2.38;1.40;;;21.20;27.70;;;;;;4992193;28;44895;-84
2024/01/28 16:36:08;;;;;;;4.25;1.50;;;21.20;27.70;;;;;;4992004;28;45623;-84
2024/01/28 16:38:34;;;;;;;3.28;1.70;;;21.20;27.70;;;;;;4979131;28;45205;-84
2024/01/28 16:41:00;;;;;;;2.88;1.88;;;21.30;27.80;;;;;;4999346;28;47746;-87
2024/01/28 16:43:28;;;;;;;2.58;1.65;;;21.30;27.80;;;;;;5014873;28;44833;-85
2024/01/28 16:45:54;;;;;;;1.65;1.50;;;21.30;27.80;;;;;;4980631;28;45227;-87
2024/01/28 16:48:25;;;;;;;3.00;1.88;;;21.30;27.80;;;;;;4990681;28;45359;-84